sensor_id;sensor_type;location;lat;lon;timestamp;pressure;altitude;pressure_sealevel;temperature;humidity
38303;BME280;24103;42.454;27.400;2023-01-09T00:01:30;101421.41;;;1.01;100.00
38303;BME280;24103;42.454;27.400;2023-01-09T00:03:56;101401.50;;;0.87;100.00
38303;BME280;24103;42.454;27.400;2023-01-09T00:06:22;101417.09;;;0.89;100.00
38303;BME280;24103;42.454;27.400;2023-01-09T00:08:48;101404.97;;;0.91;100.00
38303;BME280;24103;42.454;27.400;2023-01-09T00:11:13;101398.94;;;0.83;100.00
38303;BME280;24103;42.454;27.400;2023-01-09T00:13:39;101401.50;;;0.89;100.00
38303;BME280;24103;42.454;27.400;2023-01-09T00:16:05;101399.81;;;0.80;100.00
38303;BME280;24103;42.454;27.400;2023-01-09T00:18:32;101394.59;;;0.77;100.00
38303;BME280;24103;42.454;27.400;2023-01-09T00:20:59;101400.72;;;0.62;100.00
38303;BME280;24103;42.454;27.400;2023-01-09T00:23:25;101387.75;;;0.56;100.00
38303;BME280;24103;42.454;27.400;2023-01-09T00:26:00;101396.34;;;0.73;100.00
38303;BME280;24103;42.454;27.400;2023-01-09T00:28:25;101392.84;;;0.85;100.00
38303;BME280;24103;42.454;27.400;2023-01-09T00:30:55;101385.00;;;0.95;100.00
38303;BME280;24103;42.454;27.400;2023-01-09T00:33:24;101391.09;;;0.90;100.00
38303;BME280;24103;42.454;27.400;2023-01-09T00:35:51;101391.06;;;0.95;100.00
38303;BME280;24103;42.454;27.400;2023-01-09T00:38:17;101397.09;;;1.05;100.00
38303;BME280;24103;42.454;27.400;2023-01-09T00:40:42;101391.91;;;1.03;100.00
38303;BME280;24103;42.454;27.400;2023-01-09T00:43:08;101391.91;;;0.97;100.00
38303;BME280;24103;42.454;27.400;2023-01-09T00:45:33;101388.53;;;0.83;100.00
38303;BME280;24103;42.454;27.400;2023-01-09T00:48:07;101385.94;;;0.81;100.00
38303;BME280;24103;42.454;27.400;2023-01-09T00:50:34;101378.94;;;0.93;100.00
38303;BME280;24103;42.454;27.400;2023-01-09T00:53:14;101382.41;;;0.93;100.00
38303;BME280;24103;42.454;27.400;2023-01-09T00:55:41;101387.69;;;0.78;100.00
38303;BME280;24103;42.454;27.400;2023-01-09T00:58:07;101379.91;;;0.75;100.00
38303;BME280;24103;42.454;27.400;2023-01-09T01:00:33;101385.03;;;0.87;100.00
38303;BME280;24103;42.454;27.400;2023-01-09T01:02:58;101375.53;;;0.80;100.00
38303;BME280;24103;42.454;27.400;2023-01-09T01:05:24;101368.56;;;0.89;100.00
38303;BME280;24103;42.454;27.400;2023-01-09T01:08:16;101363.34;;;0.88;100.00
38303;BME280;24103;42.454;27.400;2023-01-09T01:10:44;101362.53;;;0.77;100.00
38303;BME280;24103;42.454;27.400;2023-01-09T01:13:10;101366.88;;;0.78;100.00
38303;BME280;24103;42.454;27.400;2023-01-09T01:15:41;101350.41;;;0.72;100.00
38303;BME280;24103;42.454;27.400;2023-01-09T01:18:08;101347.84;;;0.66;100.00
38303;BME280;24103;42.454;27.400;2023-01-09T01:20:33;101338.22;;;0.82;100.00
38303;BME280;24103;42.454;27.400;2023-01-09T01:22:59;101345.91;;;1.05;100.00
38303;BME280;24103;42.454;27.400;2023-01-09T01:25:25;101329.50;;;0.94;100.00
38303;BME280;24103;42.454;27.400;2023-01-09T01:27:50;101330.41;;;0.82;100.00
38303;BME280;24103;42.454;27.400;2023-01-09T01:30:17;101327.78;;;0.93;100.00
38303;BME280;24103;42.454;27.400;2023-01-09T01:32:43;101332.03;;;1.08;100.00
38303;BME280;24103;42.454;27.400;2023-01-09T01:35:09;101330.34;;;0.99;100.00
38303;BME280;24103;42.454;27.400;2023-01-09T01:37:36;101326.00;;;1.00;100.00
38303;BME280;24103;42.454;27.400;2023-01-09T01:40:03;101311.34;;;0.80;100.00
38303;BME280;24103;42.454;27.400;2023-01-09T01:42:28;101321.78;;;0.76;100.00
38303;BME280;24103;42.454;27.400;2023-01-09T01:45:17;101315.78;;;0.61;100.00
38303;BME280;24103;42.454;27.400;2023-01-09T01:48:16;101302.84;;;0.40;100.00
38303;BME280;24103;42.454;27.400;2023-01-09T01:50:48;101298.47;;;0.55;100.00
38303;BME280;24103;42.454;27.400;2023-01-09T01:53:29;101308.84;;;0.59;100.00
38303;BME280;24103;42.454;27.400;2023-01-09T01:56:41;101307.09;;;0.65;100.00
38303;BME280;24103;42.454;27.400;2023-01-09T02:01:56;101302.88;;;0.38;100.00
38303;BME280;24103;42.454;27.400;2023-01-09T02:04:23;101295.91;;;0.46;100.00
38303;BME280;24103;42.454;27.400;2023-01-09T02:06:51;101284.66;;;0.40;100.00
38303;BME280;24103;42.454;27.400;2023-01-09T02:09:18;101292.44;;;0.43;100.00
38303;BME280;24103;42.454;27.400;2023-01-09T02:11:49;101291.59;;;0.42;100.00
38303;BME280;24103;42.454;27.400;2023-01-09T02:14:19;101287.25;;;0.43;100.00
38303;BME280;24103;42.454;27.400;2023-01-09T02:31:30;101270.59;;;0.81;100.00
38303;BME280;24103;42.454;27.400;2023-01-09T02:34:14;101261.09;;;0.77;100.00
38303;BME280;24103;42.454;27.400;2023-01-09T02:39:34;101264.78;;;0.28;100.00
38303;BME280;24103;42.454;27.400;2023-01-09T02:42:07;101268.25;;;0.31;100.00
38303;BME280;24103;42.454;27.400;2023-01-09T02:44:35;101257.78;;;0.41;100.00
38303;BME280;24103;42.454;27.400;2023-01-09T02:50:06;101260.38;;;0.48;100.00
38303;BME280;24103;42.454;27.400;2023-01-09T02:58:15;101270.94;;;0.01;100.00
38303;BME280;24103;42.454;27.400;2023-01-09T03:03:39;101260.56;;;-0.12;100.00
38303;BME280;24103;42.454;27.400;2023-01-09T03:06:17;101260.53;;;0.04;100.00
38303;BME280;24103;42.454;27.400;2023-01-09T03:08:56;101244.91;;;0.11;100.00
38303;BME280;24103;42.454;27.400;2023-01-09T03:11:27;101238.00;;;0.13;100.00
38303;BME280;24103;42.454;27.400;2023-01-09T03:13:57;101250.09;;;0.13;100.00
38303;BME280;24103;42.454;27.400;2023-01-09T03:16:36;101255.41;;;-0.21;100.00
38303;BME280;24103;42.454;27.400;2023-01-09T03:19:14;101250.22;;;-0.24;100.00
38303;BME280;24103;42.454;27.400;2023-01-09T03:21:41;101257.09;;;-0.09;100.00
38303;BME280;24103;42.454;27.400;2023-01-09T03:24:07;101263.09;;;0.11;100.00
38303;BME280;24103;42.454;27.400;2023-01-09T03:26:33;101259.56;;;0.28;100.00
38303;BME280;24103;42.454;27.400;2023-01-09T03:28:59;101245.69;;;0.36;100.00
38303;BME280;24103;42.454;27.400;2023-01-09T03:31:25;101255.16;;;0.48;100.00
38303;BME280;24103;42.454;27.400;2023-01-09T03:33:50;101243.84;;;0.57;100.00
38303;BME280;24103;42.454;27.400;2023-01-09T03:36:17;101254.19;;;0.69;100.00
38303;BME280;24103;42.454;27.400;2023-01-09T03:38:43;101249.84;;;0.73;100.00
38303;BME280;24103;42.454;27.400;2023-01-09T03:41:09;101248.91;;;0.82;100.00
38303;BME280;24103;42.454;27.400;2023-01-09T03:43:34;101256.72;;;0.80;100.00
38303;BME280;24103;42.454;27.400;2023-01-09T03:46:00;101250.59;;;0.87;100.00
38303;BME280;24103;42.454;27.400;2023-01-09T03:48:26;101254.91;;;0.95;100.00
38303;BME280;24103;42.454;27.400;2023-01-09T03:50:53;101243.66;;;0.89;100.00
38303;BME280;24103;42.454;27.400;2023-01-09T03:53:20;101257.50;;;0.95;100.00
38303;BME280;24103;42.454;27.400;2023-01-09T03:55:52;101250.63;;;0.86;100.00
38303;BME280;24103;42.454;27.400;2023-01-09T03:58:18;101262.72;;;0.93;100.00
38303;BME280;24103;42.454;27.400;2023-01-09T04:00:45;101252.31;;;0.91;100.00
38303;BME280;24103;42.454;27.400;2023-01-09T04:03:14;101263.56;;;0.94;100.00
38303;BME280;24103;42.454;27.400;2023-01-09T04:05:40;101260.97;;;0.92;100.00
38303;BME280;24103;42.454;27.400;2023-01-09T04:08:06;101263.59;;;0.90;100.00
38303;BME280;24103;42.454;27.400;2023-01-09T04:10:32;101248.06;;;0.77;100.00
38303;BME280;24103;42.454;27.400;2023-01-09T04:12:57;101260.19;;;0.81;100.00
38303;BME280;24103;42.454;27.400;2023-01-09T04:15:23;101245.50;;;0.73;100.00
38303;BME280;24103;42.454;27.400;2023-01-09T04:17:49;101261.09;;;0.75;100.00
38303;BME280;24103;42.454;27.400;2023-01-09T04:20:14;101260.25;;;0.75;100.00
38303;BME280;24103;42.454;27.400;2023-01-09T04:22:40;101266.28;;;0.75;100.00
38303;BME280;24103;42.454;27.400;2023-01-09T04:25:06;101264.53;;;0.76;100.00
38303;BME280;24103;42.454;27.400;2023-01-09T04:27:31;101248.94;;;0.74;100.00
38303;BME280;24103;42.454;27.400;2023-01-09T04:29:57;101252.41;;;0.78;100.00
38303;BME280;24103;42.454;27.400;2023-01-09T04:32:22;101264.50;;;0.85;100.00
38303;BME280;24103;42.454;27.400;2023-01-09T04:34:48;101262.75;;;0.84;100.00
38303;BME280;24103;42.454;27.400;2023-01-09T04:37:13;101260.31;;;0.56;100.00
38303;BME280;24103;42.454;27.400;2023-01-09T04:39:39;101245.69;;;0.36;100.00
38303;BME280;24103;42.454;27.400;2023-01-09T04:42:08;101266.44;;;0.46;100.00
38303;BME280;24103;42.454;27.400;2023-01-09T04:44:37;101269.00;;;0.58;100.00
38303;BME280;24103;42.454;27.400;2023-01-09T04:47:02;101268.09;;;0.62;100.00
38303;BME280;24103;42.454;27.400;2023-01-09T04:49:28;101267.22;;;0.62;100.00
38303;BME280;24103;42.454;27.400;2023-01-09T04:51:54;101260.31;;;0.59;100.00
38303;BME280;24103;42.454;27.400;2023-01-09T04:54:20;101270.72;;;0.56;100.00
38303;BME280;24103;42.454;27.400;2023-01-09T04:56:45;101264.78;;;0.29;100.00
38303;BME280;24103;42.454;27.400;2023-01-09T04:59:11;101269.97;;;0.28;100.00
38303;BME280;24103;42.454;27.400;2023-01-09T05:01:37;101270.91;;;0.11;100.00
38303;BME280;24103;42.454;27.400;2023-01-09T05:04:03;101257.94;;;0.07;100.00
38303;BME280;24103;42.454;27.400;2023-01-09T05:06:29;101265.69;;;0.22;100.00
38303;BME280;24103;42.454;27.400;2023-01-09T05:08:55;101263.91;;;0.30;100.00
38303;BME280;24103;42.454;27.400;2023-01-09T05:11:22;101260.41;;;0.34;100.00
38303;BME280;24103;42.454;27.400;2023-01-09T05:13:47;101248.31;;;0.35;100.00
38303;BME280;24103;42.454;27.400;2023-01-09T05:16:13;101257.78;;;0.44;100.00
38303;BME280;24103;42.454;27.400;2023-01-09T05:18:38;101256.91;;;0.46;100.00
38303;BME280;24103;42.454;27.400;2023-01-09T05:21:04;101258.63;;;0.47;100.00
38303;BME280;24103;42.454;27.400;2023-01-09T05:23:30;101251.75;;;0.42;100.00
38303;BME280;24103;42.454;27.400;2023-01-09T05:25:55;101259.53;;;0.39;100.00
38303;BME280;24103;42.454;27.400;2023-01-09T05:28:21;101256.97;;;0.28;100.00
38303;BME280;24103;42.454;27.400;2023-01-09T05:30:47;101255.25;;;0.30;100.00
38303;BME280;24103;42.454;27.400;2023-01-09T05:33:12;101254.44;;;0.18;100.00
38303;BME280;24103;42.454;27.400;2023-01-09T05:35:38;101257.03;;;0.17;100.00
38303;BME280;24103;42.454;27.400;2023-01-09T05:38:04;101255.28;;;0.17;100.00
38303;BME280;24103;42.454;27.400;2023-01-09T05:40:30;101247.50;;;0.13;100.00
38303;BME280;24103;42.454;27.400;2023-01-09T05:42:56;101261.31;;;0.24;100.00
38303;BME280;24103;42.454;27.400;2023-01-09T05:45:21;101257.97;;;-0.06;100.00
38303;BME280;24103;42.454;27.400;2023-01-09T05:47:47;101259.69;;;-0.02;100.00
38303;BME280;24103;42.454;27.400;2023-01-09T05:50:13;101258.81;;;-0.02;100.00
38303;BME280;24103;42.454;27.400;2023-01-09T05:52:39;101263.09;;;0.08;100.00
38303;BME280;24103;42.454;27.400;2023-01-09T05:55:06;101264.91;;;0.00;100.00
38303;BME280;24103;42.454;27.400;2023-01-09T05:57:32;101260.56;;;-0.03;100.00
38303;BME280;24103;42.454;27.400;2023-01-09T05:59:58;101257.13;;;-0.19;100.00
38303;BME280;24103;42.454;27.400;2023-01-09T06:02:23;101259.72;;;-0.23;100.00
38303;BME280;24103;42.454;27.400;2023-01-09T06:04:49;101264.00;;;-0.02;100.00
38303;BME280;24103;42.454;27.400;2023-01-09T06:07:15;101255.41;;;-0.26;100.00
38303;BME280;24103;42.454;27.400;2023-01-09T06:09:41;101261.47;;;-0.24;100.00
38303;BME280;24103;42.454;27.400;2023-01-09T06:12:08;101254.56;;;-0.34;100.00
38303;BME280;24103;42.454;27.400;2023-01-09T06:14:33;101250.16;;;-0.04;100.00
38303;BME280;24103;42.454;27.400;2023-01-09T06:16:59;101254.44;;;0.22;100.00
38303;BME280;24103;42.454;27.400;2023-01-09T06:19:24;101251.75;;;0.39;100.00
38303;BME280;24103;42.454;27.400;2023-01-09T06:21:50;101259.41;;;0.65;100.00
38303;BME280;24103;42.454;27.400;2023-01-09T06:24:18;101258.53;;;0.66;100.00
38303;BME280;24103;42.454;27.400;2023-01-09T06:26:43;101264.63;;;0.65;100.00
38303;BME280;24103;42.454;27.400;2023-01-09T06:29:09;101264.66;;;0.57;100.00
38303;BME280;24103;42.454;27.400;2023-01-09T06:31:34;101258.53;;;0.64;100.00
38303;BME280;24103;42.454;27.400;2023-01-09T06:34:00;101260.25;;;0.73;100.00
38303;BME280;24103;42.454;27.400;2023-01-09T06:36:25;101267.00;;;0.97;100.00
38303;BME280;24103;42.454;27.400;2023-01-09T06:38:51;101266.91;;;1.17;100.00
38303;BME280;24103;42.454;27.400;2023-01-09T06:41:17;101268.53;;;1.27;100.00
38303;BME280;24103;42.454;27.400;2023-01-09T06:43:42;101255.00;;;1.83;100.00
38303;BME280;24103;42.454;27.400;2023-01-09T06:46:08;101250.63;;;2.60;100.00
38303;BME280;24103;42.454;27.400;2023-01-09T06:48:34;101243.16;;;2.95;100.00
38303;BME280;24103;42.454;27.400;2023-01-09T06:50:59;101236.09;;;3.55;100.00
38303;BME280;24103;42.454;27.400;2023-01-09T06:53:25;101223.88;;;4.01;100.00
38303;BME280;24103;42.454;27.400;2023-01-09T06:55:50;101205.69;;;4.38;100.00
38303;BME280;24103;42.454;27.400;2023-01-09T06:58:16;101209.19;;;4.76;100.00
38303;BME280;24103;42.454;27.400;2023-01-09T07:00:42;101206.16;;;4.57;100.00
38303;BME280;24103;42.454;27.400;2023-01-09T07:03:08;101200.28;;;4.48;100.00
38303;BME280;24103;42.454;27.400;2023-01-09T07:05:39;101206.34;;;4.08;100.00
38303;BME280;24103;42.454;27.400;2023-01-09T07:08:05;101217.00;;;3.98;100.00
38303;BME280;24103;42.454;27.400;2023-01-09T07:10:31;101207.28;;;3.58;100.00
38303;BME280;24103;42.454;27.400;2023-01-09T07:12:56;101229.34;;;3.90;100.00
38303;BME280;24103;42.454;27.400;2023-01-09T07:15:22;101229.09;;;4.02;100.00
38303;BME280;24103;42.454;27.400;2023-01-09T07:17:50;101233.13;;;3.74;100.00
38303;BME280;24103;42.454;27.400;2023-01-09T07:20:16;101225.63;;;3.55;100.00
38303;BME280;24103;42.454;27.400;2023-01-09T07:22:43;101235.31;;;3.50;100.00
38303;BME280;24103;42.454;27.400;2023-01-09T07:25:08;101229.38;;;3.42;100.00
38303;BME280;24103;42.454;27.400;2023-01-09T07:27:34;101229.31;;;3.45;100.00
38303;BME280;24103;42.454;27.400;2023-01-09T07:29:59;101241.69;;;3.34;100.00
38303;BME280;24103;42.454;27.400;2023-01-09T07:32:25;101239.72;;;2.92;100.00
38303;BME280;24103;42.454;27.400;2023-01-09T07:34:51;101242.16;;;3.04;100.00
38303;BME280;24103;42.454;27.400;2023-01-09T07:37:17;101244.69;;;3.10;100.00
38303;BME280;24103;42.454;27.400;2023-01-09T07:39:43;101239.44;;;3.10;100.00
38303;BME280;24103;42.454;27.400;2023-01-09T07:42:10;101252.00;;;3.40;100.00
38303;BME280;24103;42.454;27.400;2023-01-09T07:44:35;101242.13;;;3.59;100.00
38303;BME280;24103;42.454;27.400;2023-01-09T07:47:01;101242.91;;;3.62;100.00
38303;BME280;24103;42.454;27.400;2023-01-09T07:49:26;101220.22;;;3.64;100.00
38303;BME280;24103;42.454;27.400;2023-01-09T07:51:52;101224.84;;;3.52;100.00
38303;BME280;24103;42.454;27.400;2023-01-09T07:54:17;101224.03;;;3.46;100.00
38303;BME280;24103;42.454;27.400;2023-01-09T07:56:44;101234.97;;;3.68;100.00
38303;BME280;24103;42.454;27.400;2023-01-09T07:59:09;101232.56;;;4.04;100.00
38303;BME280;24103;42.454;27.400;2023-01-09T08:01:35;101218.97;;;4.29;100.00
38303;BME280;24103;42.454;27.400;2023-01-09T08:04:00;101221.38;;;4.38;100.00
38303;BME280;24103;42.454;27.400;2023-01-09T08:06:26;101223.50;;;4.21;100.00
38303;BME280;24103;42.454;27.400;2023-01-09T08:08:51;101221.53;;;3.88;100.00
38303;BME280;24103;42.454;27.400;2023-01-09T08:11:17;101227.22;;;3.64;100.00
38303;BME280;24103;42.454;27.400;2023-01-09T08:13:43;101226.22;;;4.16;100.00
38303;BME280;24103;42.454;27.400;2023-01-09T08:16:08;101233.75;;;4.72;100.00
38303;BME280;24103;42.454;27.400;2023-01-09T08:18:41;101215.06;;;4.88;100.00
38303;BME280;24103;42.454;27.400;2023-01-09T08:21:13;101218.31;;;4.60;100.00
38303;BME280;24103;42.454;27.400;2023-01-09T08:23:38;101207.09;;;4.92;100.00
38303;BME280;24103;42.454;27.400;2023-01-09T08:26:04;101212.34;;;4.92;100.00
38303;BME280;24103;42.454;27.400;2023-01-09T08:28:30;101202.25;;;4.75;100.00
38303;BME280;24103;42.454;27.400;2023-01-09T08:30:56;101212.69;;;4.77;100.00
38303;BME280;24103;42.454;27.400;2023-01-09T08:33:23;101211.63;;;4.86;100.00
38303;BME280;24103;42.454;27.400;2023-01-09T08:35:49;101207.84;;;4.97;100.00
38303;BME280;24103;42.454;27.400;2023-01-09T08:38:14;101206.22;;;4.93;100.00
38303;BME280;24103;42.454;27.400;2023-01-09T08:40:40;101200.06;;;4.94;100.00
38303;BME280;24103;42.454;27.400;2023-01-09T08:43:06;101202.22;;;5.13;100.00
38303;BME280;24103;42.454;27.400;2023-01-09T08:45:50;101196.28;;;5.41;100.00
38303;BME280;24103;42.454;27.400;2023-01-09T08:48:34;101192.00;;;5.71;100.00
38303;BME280;24103;42.454;27.400;2023-01-09T08:50:59;101187.03;;;5.27;100.00
38303;BME280;24103;42.454;27.400;2023-01-09T08:53:25;101184.66;;;5.51;100.00
38303;BME280;24103;42.454;27.400;2023-01-09T08:55:50;101183.78;;;5.83;100.00
38303;BME280;24103;42.454;27.400;2023-01-09T08:58:19;101167.41;;;6.06;100.00
38303;BME280;24103;42.454;27.400;2023-01-09T09:00:46;101153.78;;;6.23;100.00
38303;BME280;24103;42.454;27.400;2023-01-09T09:03:14;101156.91;;;6.36;100.00
38303;BME280;24103;42.454;27.400;2023-01-09T09:05:41;101157.03;;;6.60;100.00
38303;BME280;24103;42.454;27.400;2023-01-09T09:08:07;101160.59;;;6.59;100.00
38303;BME280;24103;42.454;27.400;2023-01-09T09:10:32;101144.72;;;6.63;100.00
38303;BME280;24103;42.454;27.400;2023-01-09T09:12:58;101140.41;;;6.61;100.00
38303;BME280;24103;42.454;27.400;2023-01-09T09:15:25;101145.59;;;6.62;100.00
38303;BME280;24103;42.454;27.400;2023-01-09T09:17:55;101144.38;;;6.99;100.00
38303;BME280;24103;42.454;27.400;2023-01-09T09:20:22;101133.22;;;7.19;100.00
38303;BME280;24103;42.454;27.400;2023-01-09T09:22:49;101139.13;;;7.26;100.00
38303;BME280;24103;42.454;27.400;2023-01-09T09:25:15;101128.91;;;6.92;100.00
38303;BME280;24103;42.454;27.400;2023-01-09T09:27:41;101126.72;;;6.78;100.00
38303;BME280;24103;42.454;27.400;2023-01-09T09:30:08;101138.84;;;7.09;100.00
38303;BME280;24103;42.454;27.400;2023-01-09T09:32:35;101126.41;;;7.14;100.00
38303;BME280;24103;42.454;27.400;2023-01-09T09:35:01;101115.63;;;6.96;100.00
38303;BME280;24103;42.454;27.400;2023-01-09T09:37:28;101103.88;;;7.07;100.00
38303;BME280;24103;42.454;27.400;2023-01-09T09:39:54;101111.34;;;6.92;100.00
38303;BME280;24103;42.454;27.400;2023-01-09T09:48:36;101106.63;;;6.77;100.00
38303;BME280;24103;42.454;27.400;2023-01-09T09:51:45;101105.41;;;6.87;100.00
38303;BME280;24103;42.454;27.400;2023-01-09T09:54:17;101106.06;;;6.40;100.00
38303;BME280;24103;42.454;27.400;2023-01-09T09:56:51;101106.44;;;6.55;100.00
38303;BME280;24103;42.454;27.400;2023-01-09T09:59:25;101099.03;;;6.41;100.00
38303;BME280;24103;42.454;27.400;2023-01-09T10:04:38;101072.63;;;6.45;100.00
38303;BME280;24103;42.454;27.400;2023-01-09T10:07:08;101081.50;;;6.68;100.00
38303;BME280;24103;42.454;27.400;2023-01-09T10:09:52;101071.53;;;6.53;100.00
38303;BME280;24103;42.454;27.400;2023-01-09T10:12:33;101076.28;;;6.13;100.00
38303;BME280;24103;42.454;27.400;2023-01-09T10:15:13;101068.34;;;6.15;100.00
38303;BME280;24103;42.454;27.400;2023-01-09T10:20:38;101057.66;;;6.21;100.00
38303;BME280;24103;42.454;27.400;2023-01-09T10:23:42;101051.81;;;6.13;100.00
38303;BME280;24103;42.454;27.400;2023-01-09T10:37:03;101041.09;;;6.20;100.00
38303;BME280;24103;42.454;27.400;2023-01-09T10:39:56;101026.31;;;6.16;100.00
38303;BME280;24103;42.454;27.400;2023-01-09T10:42:38;101032.63;;;6.11;100.00
38303;BME280;24103;42.454;27.400;2023-01-09T10:46:09;101009.81;;;6.13;100.00
38303;BME280;24103;42.454;27.400;2023-01-09T10:48:27;101017.38;;;6.22;100.00
38303;BME280;24103;42.454;27.400;2023-01-09T10:50:56;101012.47;;;6.39;100.00
38303;BME280;24103;42.454;27.400;2023-01-09T10:53:26;101005.50;;;6.65;100.00
38303;BME280;24103;42.454;27.400;2023-01-09T10:55:56;101001.63;;;6.50;100.00
38303;BME280;24103;42.454;27.400;2023-01-09T10:58:23;100999.97;;;6.46;100.00
38303;BME280;24103;42.454;27.400;2023-01-09T11:00:50;100988.69;;;6.44;100.00
38303;BME280;24103;42.454;27.400;2023-01-09T11:03:21;100991.22;;;6.47;100.00
38303;BME280;24103;42.454;27.400;2023-01-09T11:05:50;100961.31;;;6.51;100.00
38303;BME280;24103;42.454;27.400;2023-01-09T11:08:30;100974.50;;;6.75;100.00
38303;BME280;24103;42.454;27.400;2023-01-09T11:11:00;100974.44;;;6.51;100.00
38303;BME280;24103;42.454;27.400;2023-01-09T11:13:28;100974.34;;;6.27;100.00
38303;BME280;24103;42.454;27.400;2023-01-09T11:18:30;100959.47;;;6.53;100.00
38303;BME280;24103;42.454;27.400;2023-01-09T11:21:11;100945.25;;;6.60;100.00
38303;BME280;24103;42.454;27.400;2023-01-09T11:23:37;100955.00;;;6.57;100.00
38303;BME280;24103;42.454;27.400;2023-01-09T11:26:03;100956.03;;;6.76;100.00
38303;BME280;24103;42.454;27.400;2023-01-09T11:28:28;100944.84;;;6.71;100.00
38303;BME280;24103;42.454;27.400;2023-01-09T11:30:59;100941.69;;;6.61;100.00
38303;BME280;24103;42.454;27.400;2023-01-09T11:33:32;100947.13;;;6.57;100.00
38303;BME280;24103;42.454;27.400;2023-01-09T11:36:06;100944.63;;;6.77;100.00
38303;BME280;24103;42.454;27.400;2023-01-09T11:38:53;100940.22;;;7.03;100.00
38303;BME280;24103;42.454;27.400;2023-01-09T11:41:24;100941.06;;;6.80;100.00
38303;BME280;24103;42.454;27.400;2023-01-09T11:43:54;100941.22;;;6.75;100.00
38303;BME280;24103;42.454;27.400;2023-01-09T11:46:40;100940.22;;;6.78;100.00
38303;BME280;24103;42.454;27.400;2023-01-09T11:49:28;100932.78;;;6.91;100.00
38303;BME280;24103;42.454;27.400;2023-01-09T11:52:15;100925.63;;;6.94;100.00
38303;BME280;24103;42.454;27.400;2023-01-09T11:54:56;100928.50;;;6.88;100.00
38303;BME280;24103;42.454;27.400;2023-01-09T11:57:24;100927.41;;;6.94;100.00
38303;BME280;24103;42.454;27.400;2023-01-09T11:59:51;100925.63;;;6.94;100.00
38303;BME280;24103;42.454;27.400;2023-01-09T12:13:46;100916.91;;;6.94;100.00
38303;BME280;24103;42.454;27.400;2023-01-09T12:21:58;100899.47;;;6.68;100.00
38303;BME280;24103;42.454;27.400;2023-01-09T12:27:49;100879.56;;;6.62;100.00
38303;BME280;24103;42.454;27.400;2023-01-09T12:33:16;100896.72;;;6.71;100.00
38303;BME280;24103;42.454;27.400;2023-01-09T12:42:28;100882.91;;;6.89;100.00
38303;BME280;24103;42.454;27.400;2023-01-09T12:44:55;100884.69;;;6.89;100.00
38303;BME280;24103;42.454;27.400;2023-01-09T12:47:42;100884.03;;;6.83;100.00
38303;BME280;24103;42.454;27.400;2023-01-09T12:55:32;100870.25;;;7.00;100.00
38303;BME280;24103;42.454;27.400;2023-01-09T12:58:02;100877.72;;;7.11;100.00
38303;BME280;24103;42.454;27.400;2023-01-09T13:00:39;100880.03;;;6.97;100.00
38303;BME280;24103;42.454;27.400;2023-01-09T13:03:15;100874.81;;;6.95;100.00
38303;BME280;24103;42.454;27.400;2023-01-09T13:05:49;100877.97;;;7.05;100.00
38303;BME280;24103;42.454;27.400;2023-01-09T13:10:51;100880.28;;;6.89;100.00
38303;BME280;24103;42.454;27.400;2023-01-09T13:15:58;100882.38;;;7.05;100.00
38303;BME280;24103;42.454;27.400;2023-01-09T13:20:55;100874.34;;;7.31;100.00
38303;BME280;24103;42.454;27.400;2023-01-09T13:26:05;100857.34;;;7.40;100.00
38303;BME280;24103;42.454;27.400;2023-01-09T13:28:43;100859.22;;;7.36;100.00
38303;BME280;24103;42.454;27.400;2023-01-09T13:34:02;100873.78;;;7.45;100.00
38303;BME280;24103;42.454;27.400;2023-01-09T13:36:31;100870.84;;;7.53;100.00
38303;BME280;24103;42.454;27.400;2023-01-09T13:38:59;100872.31;;;7.60;100.00
38303;BME280;24103;42.454;27.400;2023-01-09T13:41:26;100867.38;;;7.52;100.00
38303;BME280;24103;42.454;27.400;2023-01-09T13:44:27;100865.41;;;7.35;100.00
38303;BME280;24103;42.454;27.400;2023-01-09T13:46:58;100865.81;;;7.47;100.00
38303;BME280;24103;42.454;27.400;2023-01-09T13:49:32;100865.28;;;7.61;100.00
38303;BME280;24103;42.454;27.400;2023-01-09T13:52:26;100867.31;;;7.54;100.00
38303;BME280;24103;42.454;27.400;2023-01-09T13:57:34;100855.50;;;7.64;100.00
38303;BME280;24103;42.454;27.400;2023-01-09T14:05:13;100849.75;;;7.32;100.00
38303;BME280;24103;42.454;27.400;2023-01-09T14:07:44;100852.56;;;7.28;100.00
38303;BME280;24103;42.454;27.400;2023-01-09T14:10:46;100845.72;;;7.46;100.00
38303;BME280;24103;42.454;27.400;2023-01-09T14:16:22;100840.88;;;7.35;100.00
38303;BME280;24103;42.454;27.400;2023-01-09T14:22:01;100829.81;;;7.27;100.00
38303;BME280;24103;42.454;27.400;2023-01-09T14:24:37;100810.16;;;7.15;100.00
38303;BME280;24103;42.454;27.400;2023-01-09T14:27:03;100818.81;;;7.17;100.00
38303;BME280;24103;42.454;27.400;2023-01-09T14:29:38;100813.84;;;7.09;100.00
38303;BME280;24103;42.454;27.400;2023-01-09T14:35:02;100810.03;;;6.94;100.00
38303;BME280;24103;42.454;27.400;2023-01-09T14:37:31;100809.63;;;6.83;100.00
38303;BME280;24103;42.454;27.400;2023-01-09T14:39:58;100810.25;;;6.90;100.00
38303;BME280;24103;42.454;27.400;2023-01-09T14:42:27;100806.00;;;6.86;100.00
38303;BME280;24103;42.454;27.400;2023-01-09T14:45:16;100807.56;;;6.68;100.00
38303;BME280;24103;42.454;27.400;2023-01-09T14:47:55;100814.91;;;6.58;100.00
38303;BME280;24103;42.454;27.400;2023-01-09T14:50:37;100797.41;;;6.58;100.00
38303;BME280;24103;42.454;27.400;2023-01-09T14:53:15;100794.78;;;6.58;100.00
38303;BME280;24103;42.454;27.400;2023-01-09T15:00:54;100791.81;;;5.94;100.00